Time;durP1;ratioP1;P1;durP2;ratioP2;P2;SDS_P1;SDS_P2;PMS_P1;PMS_P2;Temp;Humidity;BMP_temperature;BMP_pressure;BME280_temperature;BME280_humidity;BME280_pressure;Samples;Min_cycle;Max_cycle;Signal;HPM_P1;HPM_P2
2022/08/14 00:00:19;;;;;;;5.60;5.20;;;21.40;99.90;;;;;;5022045;28;20456;-50
2022/08/14 00:02:47;;;;;;;14.13;4.93;;;21.30;99.90;;;;;;5027499;28;20469;-52
2022/08/14 00:05:17;;;;;;;8.13;4.70;;;21.30;99.90;;;;;;5008055;28;20530;-50
2022/08/14 00:07:44;;;;;;;6.70;4.93;;;21.30;99.90;;;;;;5013405;28;20844;-51
2022/08/14 00:10:13;;;;;;;17.80;5.10;;;21.30;99.90;;;;;;5014681;28;21038;-51
2022/08/14 00:12:42;;;;;;;5.20;4.70;;;21.30;99.90;;;;;;5014747;28;20463;-51
2022/08/14 00:15:12;;;;;;;6.90;4.90;;;21.30;99.90;;;;;;5026807;28;20463;-50
2022/08/14 00:17:38;;;;;;;5.33;4.70;;;21.30;99.90;;;;;;5022673;28;20576;-51
2022/08/14 00:20:08;;;;;;;6.80;5.00;;;21.30;99.90;;;;;;5024193;28;20451;-50
2022/08/14 00:22:35;;;;;;;5.33;4.87;;;21.30;99.90;;;;;;5012584;28;20945;-51
2022/08/14 00:25:01;;;;;;;7.67;4.40;;;21.20;99.90;;;;;;5022422;28;20977;-50
2022/08/14 00:27:28;;;;;;;7.93;5.37;;;21.20;99.90;;;;;;5015869;28;20540;-51
2022/08/14 00:29:54;;;;;;;5.23;4.83;;;21.20;99.90;;;;;;5012426;28;20474;-50
2022/08/14 00:32:21;;;;;;;5.30;4.80;;;21.20;99.90;;;;;;5020919;28;20513;-51
2022/08/14 00:34:48;;;;;;;4.63;4.23;;;21.20;99.90;;;;;;5026940;28;20524;-51
2022/08/14 00:37:15;;;;;;;5.53;5.07;;;21.10;99.90;;;;;;5023497;28;20536;-51
2022/08/14 00:39:42;;;;;;;5.33;4.93;;;21.10;99.90;;;;;;5011849;28;20518;-52
2022/08/14 00:42:09;;;;;;;8.27;5.00;;;21.10;99.90;;;;;;5012173;28;20448;-51
2022/08/14 00:44:36;;;;;;;5.83;5.33;;;21.00;99.90;;;;;;5011026;28;20827;-51
2022/08/14 00:47:04;;;;;;;5.20;4.70;;;21.00;99.90;;;;;;5012644;28;20447;-52
2022/08/14 00:49:32;;;;;;;5.30;4.90;;;21.00;99.90;;;;;;5017672;28;20832;-51
2022/08/14 00:51:59;;;;;;;6.63;5.40;;;21.00;99.90;;;;;;5008425;28;20460;-49
2022/08/14 00:54:27;;;;;;;6.50;5.10;;;20.90;99.90;;;;;;5016527;28;20463;-51
2022/08/14 00:56:54;;;;;;;6.23;5.30;;;20.90;99.90;;;;;;5015930;28;20601;-51
2022/08/14 00:59:21;;;;;;;5.60;5.20;;;20.90;99.90;;;;;;5013505;28;20467;-51
2022/08/14 01:01:48;;;;;;;5.00;4.57;;;20.90;99.90;;;;;;5015227;28;20542;-51
2022/08/14 01:04:15;;;;;;;5.20;4.73;;;20.80;99.90;;;;;;5013341;28;20487;-50
2022/08/14 01:06:42;;;;;;;7.80;5.10;;;20.80;99.90;;;;;;5021312;28;20517;-52
2022/08/14 01:09:10;;;;;;;10.00;5.90;;;20.80;99.90;;;;;;5026858;28;20479;-51
2022/08/14 01:11:39;;;;;;;7.53;5.70;;;20.80;99.90;;;;;;5014978;28;22491;-51
2022/08/14 01:14:05;;;;;;;6.80;5.30;;;20.80;99.90;;;;;;5013510;28;20463;-51
2022/08/14 01:16:32;;;;;;;6.70;4.27;;;20.80;99.90;;;;;;5019255;28;20965;-50
2022/08/14 01:21:46;;;;;;;10.00;5.90;;;20.80;99.90;;;;;;5013119;28;20462;-50
2022/08/14 01:24:14;;;;;;;6.17;4.60;;;20.80;99.90;;;;;;5011775;28;20926;-50
2022/08/14 01:26:42;;;;;;;5.77;5.00;;;20.80;99.90;;;;;;5010751;28;20460;-51
2022/08/14 01:29:09;;;;;;;5.83;4.70;;;20.80;99.90;;;;;;5021804;28;20528;-51
2022/08/14 01:31:37;;;;;;;9.53;4.70;;;20.80;99.90;;;;;;5024818;28;20467;-51
2022/08/14 01:34:06;;;;;;;5.03;4.60;;;20.90;99.90;;;;;;5010119;28;20463;-50
2022/08/14 01:36:36;;;;;;;5.77;4.77;;;20.90;99.90;;;;;;5014843;28;20484;-51
2022/08/14 01:39:07;;;;;;;4.57;4.17;;;20.90;99.90;;;;;;5017829;28;20518;-50
2022/08/14 01:41:36;;;;;;;6.00;4.60;;;20.90;99.90;;;;;;5010814;28;20599;-50
2022/08/14 01:44:06;;;;;;;15.20;5.70;;;20.90;99.90;;;;;;5010921;28;20991;-51
2022/08/14 01:46:36;;;;;;;6.60;5.07;;;20.90;99.90;;;;;;5010795;28;20526;-51
2022/08/14 01:49:04;;;;;;;12.43;5.30;;;20.90;99.90;;;;;;5014008;28;20483;-50
2022/08/14 01:51:32;;;;;;;5.87;5.37;;;20.90;99.90;;;;;;5009747;28;20520;-52
2022/08/14 01:54:02;;;;;;;10.93;5.00;;;20.90;99.90;;;;;;5014722;28;21007;-51
2022/08/14 01:56:36;;;;;;;5.50;5.07;;;20.90;99.90;;;;;;5020659;28;20460;-50
2022/08/14 01:59:05;;;;;;;6.83;5.70;;;20.90;99.90;;;;;;5012498;28;20482;-51
2022/08/14 02:01:33;;;;;;;5.80;5.30;;;20.90;99.90;;;;;;5012172;28;20460;-50
2022/08/14 02:04:00;;;;;;;5.23;4.77;;;20.90;99.90;;;;;;5016727;28;20547;-51
2022/08/14 02:06:27;;;;;;;8.30;5.20;;;20.90;99.90;;;;;;5009310;28;20514;-51
2022/08/14 02:08:54;;;;;;;5.23;4.93;;;20.90;99.90;;;;;;5010619;28;20981;-50
2022/08/14 02:11:23;;;;;;;7.13;5.37;;;20.90;99.90;;;;;;5021700;28;20960;-52
2022/08/14 02:13:55;;;;;;;6.60;5.30;;;20.90;99.90;;;;;;5013314;28;21020;-51
2022/08/14 02:16:25;;;;;;;8.77;5.80;;;20.90;99.90;;;;;;5006306;28;20547;-51
2022/08/14 02:18:53;;;;;;;5.53;5.13;;;20.90;99.90;;;;;;5025006;28;20980;-51
2022/08/14 02:21:20;;;;;;;10.00;5.73;;;20.90;99.90;;;;;;5015084;28;20906;-51
2022/08/14 02:23:49;;;;;;;11.77;5.43;;;20.90;99.90;;;;;;5024137;28;20518;-51
2022/08/14 02:26:19;;;;;;;6.20;5.57;;;20.90;99.90;;;;;;5014692;28;20501;-51
2022/08/14 02:28:48;;;;;;;5.87;5.07;;;20.90;99.90;;;;;;5023289;28;20879;-51
2022/08/14 02:31:16;;;;;;;9.67;5.20;;;20.90;99.90;;;;;;5020994;28;20464;-51
2022/08/14 02:33:43;;;;;;;5.30;4.90;;;20.90;99.90;;;;;;5014217;28;20866;-52
2022/08/14 02:36:11;;;;;;;6.07;5.57;;;20.90;99.90;;;;;;5029510;28;20505;-52
2022/08/14 02:38:39;;;;;;;5.77;5.37;;;20.90;99.90;;;;;;5020531;28;20487;-51
2022/08/14 02:41:09;;;;;;;5.23;4.80;;;20.90;99.90;;;;;;5014533;28;20455;-51
2022/08/14 02:43:38;;;;;;;9.07;5.33;;;20.90;99.90;;;;;;5021804;28;20463;-50
2022/08/14 02:46:07;;;;;;;6.87;5.57;;;20.90;99.90;;;;;;5018038;28;20478;-51
2022/08/14 02:48:35;;;;;;;6.00;5.50;;;20.90;99.90;;;;;;5023158;28;20478;-51
2022/08/14 02:51:05;;;;;;;5.70;5.10;;;20.90;99.90;;;;;;5023276;28;20557;-50
2022/08/14 02:53:32;;;;;;;15.90;5.40;;;20.80;99.90;;;;;;5018760;28;20486;-50
2022/08/14 02:56:00;;;;;;;5.80;5.30;;;20.80;99.90;;;;;;5025272;28;20509;-51
2022/08/14 02:58:27;;;;;;;7.13;5.83;;;20.80;99.90;;;;;;5014342;28;20483;-51
2022/08/14 03:00:54;;;;;;;8.23;5.40;;;20.80;99.90;;;;;;5013148;28;20471;-51
2022/08/14 03:03:22;;;;;;;7.77;5.50;;;20.80;99.90;;;;;;5016090;28;20460;-51
2022/08/14 03:05:51;;;;;;;8.83;5.50;;;20.80;99.90;;;;;;5020568;28;20460;-51
2022/08/14 03:08:18;;;;;;;6.13;5.57;;;20.80;99.90;;;;;;5019967;28;20532;-50
2022/08/14 03:10:46;;;;;;;6.63;5.70;;;20.80;99.90;;;;;;5027441;28;20463;-51
2022/08/14 03:13:13;;;;;;;5.87;5.27;;;20.80;99.90;;;;;;5018223;28;20470;-51
2022/08/14 03:15:40;;;;;;;12.60;5.90;;;20.80;99.90;;;;;;5016676;28;21032;-52
2022/08/14 03:18:10;;;;;;;6.70;5.37;;;20.70;99.90;;;;;;5022639;28;20542;-51
2022/08/14 03:20:37;;;;;;;7.43;5.97;;;20.80;99.90;;;;;;5016435;28;20458;-50
2022/08/14 03:23:06;;;;;;;6.67;5.03;;;20.80;99.90;;;;;;5021375;28;20848;-51
2022/08/14 03:25:33;;;;;;;8.27;5.60;;;20.80;99.90;;;;;;5024223;28;20460;-50
2022/08/14 03:28:02;;;;;;;7.10;5.40;;;20.80;99.90;;;;;;5017045;28;20511;-50
2022/08/14 03:30:31;;;;;;;5.47;5.03;;;20.70;99.90;;;;;;5022682;28;20566;-52
2022/08/14 03:32:57;;;;;;;6.63;5.57;;;20.70;99.90;;;;;;5012771;28;20451;-50
2022/08/14 03:35:24;;;;;;;5.17;4.77;;;20.70;99.90;;;;;;5021403;28;20522;-51
2022/08/14 03:37:51;;;;;;;5.83;5.43;;;20.70;99.90;;;;;;5014397;28;20543;-51
2022/08/14 03:40:20;;;;;;;5.73;5.33;;;20.70;99.90;;;;;;5020898;28;20938;-51
2022/08/14 03:42:46;;;;;;;5.97;5.13;;;20.70;99.90;;;;;;5011487;28;20525;-51
2022/08/14 03:45:14;;;;;;;6.10;5.63;;;20.70;99.90;;;;;;5013901;28;20518;-51
2022/08/14 03:47:40;;;;;;;6.03;5.47;;;20.70;99.90;;;;;;5029336;28;20556;-52
2022/08/14 03:50:09;;;;;;;9.43;7.10;;;20.70;99.90;;;;;;5014701;28;21140;-51
2022/08/14 03:52:36;;;;;;;7.10;5.27;;;20.70;99.90;;;;;;5016466;28;20509;-50
2022/08/14 03:55:05;;;;;;;6.07;5.60;;;20.70;99.90;;;;;;5015136;28;20460;-51
2022/08/14 04:00:12;;;;;;;5.83;5.53;;;20.70;99.90;;;;;;5048348;28;21003;-54
2022/08/14 04:02:39;;;;;;;7.47;5.27;;;20.70;99.90;;;;;;5053874;28;20458;-53
2022/08/14 04:05:07;;;;;;;5.90;5.30;;;20.70;99.90;;;;;;5052750;28;20511;-53
2022/08/14 04:07:33;;;;;;;6.50;5.90;;;20.70;99.90;;;;;;5048251;28;20454;-53
2022/08/14 04:10:00;;;;;;;11.60;5.20;;;20.70;99.90;;;;;;5049639;28;20462;-53
2022/08/14 04:12:27;;;;;;;8.47;6.10;;;20.70;99.90;;;;;;5052080;28;20469;-53
2022/08/14 04:14:54;;;;;;;7.13;6.63;;;20.70;99.90;;;;;;5051408;28;20528;-54
2022/08/14 04:17:22;;;;;;;6.87;6.13;;;20.70;99.90;;;;;;5052966;28;20508;-53
2022/08/14 04:19:48;;;;;;;13.63;5.70;;;20.70;99.90;;;;;;5054846;28;20551;-54
2022/08/14 04:22:15;;;;;;;6.23;5.70;;;20.70;99.90;;;;;;5046600;28;20458;-53
2022/08/14 04:24:42;;;;;;;11.30;6.57;;;20.70;99.90;;;;;;5050071;28;20543;-53
2022/08/14 04:27:10;;;;;;;6.83;6.17;;;20.70;99.90;;;;;;5052720;28;20452;-55
2022/08/14 04:29:38;;;;;;;6.43;5.80;;;20.80;99.90;;;;;;5051058;28;20481;-55
2022/08/14 04:32:06;;;;;;;15.20;7.27;;;20.70;99.90;;;;;;5051181;28;20499;-54
2022/08/14 04:34:36;;;;;;;6.30;5.63;;;20.70;99.90;;;;;;5053878;28;20466;-53
2022/08/14 04:45:24;;;;;;;6.17;5.77;;;20.70;99.90;;;;;;5055355;28;20493;-54
2022/08/14 04:50:38;;;;;;;9.70;6.97;;;20.70;99.90;;;;;;5048921;28;20469;-54
2022/08/14 04:53:04;;;;;;;7.17;6.27;;;20.70;99.90;;;;;;5049252;28;20462;-54
2022/08/14 04:55:32;;;;;;;6.70;5.77;;;20.70;99.90;;;;;;5046441;28;21101;-53
2022/08/14 04:57:59;;;;;;;10.30;5.93;;;20.70;99.90;;;;;;5053779;28;20481;-53
2022/08/14 05:00:27;;;;;;;8.90;6.23;;;20.70;99.90;;;;;;5044842;28;20497;-54
2022/08/14 05:02:55;;;;;;;6.57;5.97;;;20.70;99.90;;;;;;5049661;28;20488;-54
2022/08/14 05:05:23;;;;;;;7.20;6.20;;;20.80;99.90;;;;;;5049068;28;20460;-54
2022/08/14 05:07:51;;;;;;;7.60;6.30;;;20.70;99.90;;;;;;5050429;28;20458;-53
2022/08/14 05:10:22;;;;;;;10.33;6.93;;;20.80;99.90;;;;;;5051252;28;20465;-54
2022/08/14 05:12:50;;;;;;;7.77;6.40;;;20.80;99.90;;;;;;5054660;28;20982;-55
2022/08/14 05:15:20;;;;;;;10.20;5.80;;;20.90;99.90;;;;;;5053463;28;20861;-54
2022/08/14 05:17:47;;;;;;;8.93;5.90;;;20.90;99.90;;;;;;5050102;28;20457;-53
2022/08/14 05:20:14;;;;;;;7.10;6.50;;;20.90;99.90;;;;;;5053454;28;20461;-53
2022/08/14 05:22:41;;;;;;;6.87;6.27;;;20.90;99.90;;;;;;5051028;28;20519;-55
2022/08/14 05:25:09;;;;;;;7.03;6.43;;;21.00;99.90;;;;;;5052059;28;20493;-54
2022/08/14 05:27:35;;;;;;;6.80;6.20;;;21.00;99.90;;;;;;5051492;28;20513;-54
2022/08/14 05:30:06;;;;;;;6.63;6.00;;;21.10;99.90;;;;;;5051081;28;21049;-54
2022/08/14 05:32:33;;;;;;;6.10;5.70;;;21.10;99.90;;;;;;5050250;28;20520;-54
2022/08/14 05:34:59;;;;;;;9.30;7.27;;;21.20;99.90;;;;;;5050522;28;20473;-54
2022/08/14 05:37:29;;;;;;;7.40;6.80;;;21.30;99.90;;;;;;5049583;28;20465;-54
2022/08/14 05:39:56;;;;;;;6.87;6.17;;;21.40;99.90;;;;;;5056257;28;20844;-53
2022/08/14 05:42:24;;;;;;;6.80;6.33;;;21.50;99.90;;;;;;5048459;28;20967;-53
2022/08/14 05:44:51;;;;;;;6.87;6.33;;;21.60;99.90;;;;;;5049373;28;20529;-53
2022/08/14 05:47:18;;;;;;;6.80;6.20;;;21.70;99.90;;;;;;5050935;28;20446;-54
2022/08/14 05:49:47;;;;;;;7.03;6.07;;;21.80;99.90;;;;;;5050049;28;20626;-54
2022/08/14 05:52:13;;;;;;;7.37;6.57;;;21.90;99.90;;;;;;5050343;28;20935;-54
2022/08/14 05:54:41;;;;;;;6.63;6.10;;;22.00;99.90;;;;;;5051242;28;20946;-53
2022/08/14 05:57:08;;;;;;;6.83;6.13;;;22.10;99.90;;;;;;5049578;28;20458;-53
2022/08/14 05:59:36;;;;;;;6.97;6.40;;;22.20;99.90;;;;;;5053547;28;20494;-53
2022/08/14 06:02:02;;;;;;;7.07;6.37;;;22.20;99.90;;;;;;5052587;28;20453;-53
2022/08/14 06:04:29;;;;;;;8.43;7.40;;;22.30;99.90;;;;;;5058436;28;20458;-53
2022/08/14 06:06:56;;;;;;;7.13;6.37;;;22.40;99.90;;;;;;5054916;28;20465;-53
2022/08/14 06:09:22;;;;;;;8.80;6.43;;;22.40;99.90;;;;;;5054203;28;21040;-53
2022/08/14 06:11:49;;;;;;;8.00;7.20;;;22.50;99.90;;;;;;5058588;28;20461;-53
2022/08/14 06:14:15;;;;;;;12.23;7.20;;;22.50;99.90;;;;;;5057065;28;20457;-52
2022/08/14 06:16:46;;;;;;;12.20;7.20;;;22.60;99.90;;;;;;5050800;28;20466;-54
2022/08/14 06:19:12;;;;;;;7.87;7.13;;;22.70;99.90;;;;;;5053047;28;20486;-54
2022/08/14 06:21:39;;;;;;;7.40;6.77;;;22.80;99.90;;;;;;5054164;28;20449;-54
2022/08/14 06:24:06;;;;;;;7.13;6.50;;;22.90;99.90;;;;;;5051762;28;20462;-54
2022/08/14 06:26:33;;;;;;;8.20;7.40;;;23.00;99.90;;;;;;5060410;28;20445;-54
2022/08/14 06:28:59;;;;;;;8.37;6.53;;;23.10;99.90;;;;;;5053450;28;20560;-53
2022/08/14 06:31:26;;;;;;;6.83;6.33;;;23.10;99.90;;;;;;5053347;28;20469;-53
2022/08/14 06:33:54;;;;;;;9.30;6.57;;;23.20;99.90;;;;;;5048348;28;20952;-54
2022/08/14 06:36:21;;;;;;;7.20;6.50;;;23.30;99.90;;;;;;5052939;28;20533;-54
2022/08/14 06:38:47;;;;;;;7.00;6.27;;;23.30;95.40;;;;;;5054987;28;20489;-55
2022/08/14 06:41:14;;;;;;;15.00;7.03;;;23.40;82.80;;;;;;5052826;28;20462;-55
2022/08/14 06:43:41;;;;;;;6.77;6.17;;;23.50;74.20;;;;;;5052524;28;20832;-55
2022/08/14 06:46:08;;;;;;;7.80;7.20;;;23.60;21.80;;;;;;5053498;28;20519;-54
2022/08/14 06:48:35;;;;;;;9.23;6.80;;;23.70;27.50;;;;;;5054383;28;20527;-54
2022/08/14 06:51:03;;;;;;;14.57;6.33;;;23.80;32.10;;;;;;5052335;28;20466;-55
2022/08/14 06:53:30;;;;;;;6.83;6.23;;;23.80;36.60;;;;;;5054329;28;20441;-55
2022/08/14 06:55:57;;;;;;;7.20;6.60;;;24.00;39.90;;;;;;5053355;28;20466;-53
2022/08/14 06:58:23;;;;;;;9.20;6.40;;;24.00;41.70;;;;;;5054450;28;20492;-55
2022/08/14 07:06:20;;;;;;;6.87;6.20;;;24.20;48.70;;;;;;5053325;28;20527;-53
2022/08/14 07:08:47;;;;;;;6.53;5.93;;;24.30;49.30;;;;;;5054505;28;20454;-54
2022/08/14 07:11:14;;;;;;;10.60;6.20;;;24.50;45.60;;;;;;5053345;28;20835;-54
2022/08/14 07:13:41;;;;;;;7.03;6.10;;;24.70;48.40;;;;;;5053002;28;20465;-53
2022/08/14 07:16:08;;;;;;;9.03;6.80;;;24.90;53.60;;;;;;5064285;28;20496;-54
2022/08/14 07:18:36;;;;;;;8.90;6.20;;;25.00;57.80;;;;;;5053502;28;20535;-54
2022/08/14 07:21:04;;;;;;;7.17;6.57;;;25.30;62.50;;;;;;5053788;28;20446;-53
2022/08/14 07:23:33;;;;;;;6.80;6.20;;;25.40;70.60;;;;;;5053212;28;20458;-52
2022/08/14 07:26:01;;;;;;;6.40;5.90;;;25.50;77.50;;;;;;5054079;28;20993;-53
2022/08/14 07:28:31;;;;;;;9.00;6.83;;;25.40;80.50;;;;;;5056004;28;20481;-52
2022/08/14 07:30:59;;;;;;;7.50;6.53;;;25.40;79.00;;;;;;5050048;28;20489;-53
2022/08/14 07:33:28;;;;;;;7.50;6.80;;;25.30;78.10;;;;;;5053715;28;20847;-54
2022/08/14 07:35:56;;;;;;;11.03;7.00;;;25.20;78.60;;;;;;5052887;28;20465;-54
2022/08/14 07:38:23;;;;;;;6.53;5.90;;;25.20;75.40;;;;;;5053561;28;20557;-54
2022/08/14 07:40:51;;;;;;;9.17;6.90;;;25.10;73.70;;;;;;5053186;28;20456;-54
2022/08/14 07:43:18;;;;;;;9.40;6.83;;;25.10;70.80;;;;;;5054794;28;20509;-54
2022/08/14 07:45:45;;;;;;;9.93;7.63;;;25.10;69.20;;;;;;5056564;28;20446;-54
2022/08/14 07:48:12;;;;;;;8.93;6.73;;;25.10;70.10;;;;;;5061052;28;20539;-54
2022/08/14 07:50:39;;;;;;;7.10;6.60;;;25.10;70.70;;;;;;5054866;28;20518;-54
2022/08/14 07:53:06;;;;;;;7.70;7.10;;;25.20;70.50;;;;;;5052308;28;20536;-54
2022/08/14 07:55:33;;;;;;;7.60;6.90;;;25.20;71.20;;;;;;5053306;28;20442;-54
2022/08/14 07:58:01;;;;;;;7.10;6.50;;;25.20;69.60;;;;;;5050965;28;20486;-54
2022/08/14 08:00:28;;;;;;;9.57;6.97;;;25.30;71.70;;;;;;5052445;28;20486;-53
2022/08/14 08:02:55;;;;;;;7.73;7.23;;;25.30;72.50;;;;;;5051733;28;20983;-53
2022/08/14 08:05:24;;;;;;;8.40;7.57;;;25.30;73.60;;;;;;5052314;28;20527;-53
2022/08/14 08:07:52;;;;;;;9.07;6.60;;;25.40;75.30;;;;;;5053301;28;20538;-52
2022/08/14 08:10:33;;;;;;;7.40;6.80;;;25.40;76.10;;;;;;5054759;28;20486;-53
2022/08/14 08:13:04;;;;;;;7.60;7.00;;;25.50;75.50;;;;;;5051252;28;20922;-53
2022/08/14 08:15:33;;;;;;;9.77;6.33;;;25.60;75.70;;;;;;5052127;28;20461;-53
2022/08/14 08:18:01;;;;;;;10.90;7.00;;;25.60;77.80;;;;;;5053020;28;20515;-53
2022/08/14 08:20:28;;;;;;;7.10;6.50;;;25.70;82.50;;;;;;5049052;28;22242;-53
2022/08/14 08:22:57;;;;;;;12.20;6.77;;;25.80;86.00;;;;;;5052208;28;20446;-54
2022/08/14 08:25:24;;;;;;;8.03;6.70;;;25.80;89.50;;;;;;5050536;28;20497;-53
2022/08/14 08:27:59;;;;;;;10.33;6.10;;;25.90;90.00;;;;;;5052739;28;21017;-53
2022/08/14 08:30:28;;;;;;;11.23;6.03;;;26.00;92.30;;;;;;5060013;28;20486;-52
2022/08/14 08:32:57;;;;;;;8.70;5.90;;;26.00;97.70;;;;;;5050847;28;20462;-54
2022/08/14 08:35:26;;;;;;;8.67;5.60;;;26.10;99.90;;;;;;5052822;28;20449;-52
2022/08/14 08:37:54;;;;;;;9.37;6.03;;;26.20;99.90;;;;;;5051389;28;20507;-53
2022/08/14 08:40:26;;;;;;;6.40;5.83;;;26.20;99.90;;;;;;5051687;28;20643;-53
2022/08/14 08:42:53;;;;;;;7.40;6.23;;;26.30;99.90;;;;;;5049603;28;20462;-54
2022/08/14 08:45:21;;;;;;;6.10;5.50;;;26.40;99.90;;;;;;5057776;28;20492;-54
2022/08/14 08:47:50;;;;;;;6.07;5.63;;;26.50;99.90;;;;;;5051456;28;20454;-54
2022/08/14 08:50:19;;;;;;;7.60;6.40;;;26.70;99.90;;;;;;5051888;28;20541;-53
2022/08/14 08:52:50;;;;;;;7.80;5.83;;;26.80;99.90;;;;;;5050830;28;20835;-54
2022/08/14 08:55:25;;;;;;;5.47;4.97;;;27.00;99.90;;;;;;5047433;28;20458;-53
2022/08/14 08:57:54;;;;;;;5.93;5.37;;;27.10;99.90;;;;;;5048988;28;20842;-54
2022/08/14 09:00:21;;;;;;;13.63;7.63;;;27.20;99.90;;;;;;5049063;28;20983;-54
2022/08/14 09:03:02;;;;;;;5.43;5.03;;;27.30;99.90;;;;;;5051695;28;20557;-53
2022/08/14 09:05:30;;;;;;;7.50;4.87;;;27.50;99.90;;;;;;5051883;28;20536;-53
2022/08/14 09:08:12;;;;;;;6.30;5.30;;;27.80;99.90;;;;;;5050046;28;20477;-53
2022/08/14 09:10:39;;;;;;;8.50;4.47;;;28.00;99.90;;;;;;5050297;28;20454;-53
2022/08/14 09:13:06;;;;;;;4.97;4.67;;;28.30;99.90;;;;;;5052457;28;20997;-54
2022/08/14 09:15:33;;;;;;;7.13;4.67;;;28.40;99.90;;;;;;5052104;28;20446;-53
2022/08/14 09:18:01;;;;;;;5.50;4.93;;;28.30;99.90;;;;;;5059191;28;20922;-53
2022/08/14 09:20:28;;;;;;;5.33;4.83;;;28.40;99.90;;;;;;5047837;28;20477;-53
2022/08/14 09:22:55;;;;;;;5.27;4.90;;;28.40;99.90;;;;;;5053066;28;20465;-53
2022/08/14 09:25:22;;;;;;;6.17;4.83;;;28.40;99.90;;;;;;5048887;28;20454;-53
2022/08/14 09:27:49;;;;;;;6.30;4.77;;;28.40;99.90;;;;;;5051784;28;20457;-53
2022/08/14 09:30:16;;;;;;;13.10;5.57;;;28.40;99.90;;;;;;5057017;28;20485;-53
2022/08/14 09:32:55;;;;;;;10.00;4.77;;;28.40;99.90;;;;;;5048439;28;20462;-52
2022/08/14 09:35:29;;;;;;;5.13;4.73;;;28.40;99.90;;;;;;5048279;28;20457;-52
2022/08/14 09:38:06;;;;;;;5.33;4.37;;;28.30;99.90;;;;;;5051252;28;20466;-53
2022/08/14 09:40:47;;;;;;;7.10;6.50;;;28.30;99.90;;;;;;5049186;28;20484;-54
2022/08/14 09:43:24;;;;;;;5.00;4.50;;;28.30;99.90;;;;;;5046262;28;20464;-53
2022/08/14 09:45:51;;;;;;;11.07;4.57;;;28.30;99.90;;;;;;5050188;28;20461;-52
2022/08/14 09:48:20;;;;;;;4.53;4.13;;;28.40;99.90;;;;;;5050598;28;20484;-53
2022/08/14 09:50:49;;;;;;;4.60;3.90;;;28.50;99.90;;;;;;5049637;28;20930;-53
2022/08/14 09:53:33;;;;;;;4.77;4.47;;;28.50;99.90;;;;;;5047990;28;20461;-53
2022/08/14 09:56:01;;;;;;;4.30;3.97;;;28.60;99.90;;;;;;5050238;28;20464;-53
2022/08/14 09:58:37;;;;;;;5.90;4.10;;;28.60;99.90;;;;;;5069811;22;20509;-52
2022/08/14 10:01:11;;;;;;;3.50;3.30;;;28.60;99.90;;;;;;5056280;28;20493;-53
2022/08/14 10:03:47;;;;;;;5.53;4.00;;;28.60;99.90;;;;;;5045617;28;20865;-52
2022/08/14 10:06:17;;;;;;;3.90;3.60;;;28.70;99.90;;;;;;5047659;28;20457;-52
2022/08/14 10:08:47;;;;;;;4.30;3.90;;;28.80;99.90;;;;;;5049440;28;20472;-52
2022/08/14 10:11:19;;;;;;;4.07;3.67;;;28.90;99.90;;;;;;5064079;28;20490;-53
2022/08/14 10:13:48;;;;;;;5.13;3.20;;;29.00;99.90;;;;;;5076295;28;20532;-52
2022/08/14 10:16:15;;;;;;;4.13;3.87;;;29.00;99.90;;;;;;5067752;28;21028;-51
2022/08/14 10:18:42;;;;;;;9.53;4.53;;;29.20;99.90;;;;;;5063440;28;20927;-52
2022/08/14 10:21:10;;;;;;;5.27;4.00;;;29.30;99.90;;;;;;5059953;28;20520;-52
2022/08/14 10:23:46;;;;;;;5.97;3.90;;;29.50;99.90;;;;;;5074134;28;21181;-52
2022/08/14 10:26:17;;;;;;;5.40;4.07;;;29.50;99.90;;;;;;5062856;28;20449;-51
2022/08/14 10:28:45;;;;;;;4.20;3.90;;;29.60;99.90;;;;;;5069600;28;20853;-52
2022/08/14 10:31:22;;;;;;;7.90;3.60;;;29.70;99.90;;;;;;5067893;28;20515;-52
2022/08/14 10:34:01;;;;;;;6.43;3.43;;;29.50;99.90;;;;;;5071193;28;20455;-52
2022/08/14 10:36:31;;;;;;;4.20;3.80;;;29.40;99.90;;;;;;5068614;28;20942;-51
2022/08/14 10:39:00;;;;;;;8.87;3.70;;;29.40;99.90;;;;;;5078825;28;20563;-51
2022/08/14 10:41:39;;;;;;;4.30;3.90;;;29.50;99.90;;;;;;5069909;28;20472;-52
2022/08/14 10:44:12;;;;;;;6.70;3.57;;;29.50;99.90;;;;;;5079466;28;20879;-51
2022/08/14 10:46:44;;;;;;;3.87;3.60;;;29.60;99.90;;;;;;5085658;28;20543;-51
2022/08/14 10:49:19;;;;;;;11.20;3.53;;;29.60;99.90;;;;;;5065881;28;20476;-51
2022/08/14 10:52:05;;;;;;;8.37;3.93;;;29.60;99.90;;;;;;5070287;28;20452;-51
2022/08/14 10:54:38;;;;;;;4.53;3.50;;;29.60;99.90;;;;;;5080292;28;20493;-51
2022/08/14 10:57:18;;;;;;;4.90;3.67;;;29.50;99.90;;;;;;5070677;28;20459;-51
2022/08/14 10:59:48;;;;;;;6.20;3.33;;;29.60;99.90;;;;;;5070401;28;20484;-51
2022/08/14 11:02:28;;;;;;;3.33;3.10;;;29.60;99.90;;;;;;5070501;28;20491;-51
2022/08/14 11:05:00;;;;;;;3.57;3.27;;;29.80;99.90;;;;;;5079458;28;20540;-52
2022/08/14 11:07:27;;;;;;;3.80;3.13;;;29.80;99.90;;;;;;5077317;28;20522;-52
2022/08/14 11:09:56;;;;;;;6.43;3.20;;;30.10;99.90;;;;;;5071199;28;20477;-52
2022/08/14 11:12:25;;;;;;;5.90;3.17;;;30.30;99.90;;;;;;5062861;28;20471;-52
2022/08/14 11:14:58;;;;;;;3.43;3.23;;;30.50;99.90;;;;;;5070644;28;20830;-52
2022/08/14 11:17:25;;;;;;;4.10;3.80;;;30.70;99.90;;;;;;5070426;28;20456;-50
2022/08/14 11:19:59;;;;;;;5.37;3.70;;;31.00;99.90;;;;;;5084921;28;20482;-52
2022/08/14 11:22:29;;;;;;;3.73;3.50;;;31.20;99.90;;;;;;5074646;28;20487;-51
2022/08/14 11:25:04;;;;;;;8.23;3.30;;;31.30;99.90;;;;;;5080032;28;20468;-51
2022/08/14 11:27:32;;;;;;;4.00;3.70;;;31.20;99.90;;;;;;5071420;28;20836;-51
2022/08/14 11:30:02;;;;;;;5.63;3.47;;;30.90;99.90;;;;;;5081715;28;20466;-51
2022/08/14 11:32:29;;;;;;;4.53;3.10;;;30.90;99.90;;;;;;5072877;28;20951;-52
2022/08/14 11:34:56;;;;;;;5.40;3.57;;;30.80;99.90;;;;;;5075287;28;20934;-50
2022/08/14 11:37:23;;;;;;;6.73;3.57;;;30.80;99.90;;;;;;5085595;28;20437;-51
2022/08/14 11:39:49;;;;;;;11.83;3.10;;;30.70;99.90;;;;;;5066342;28;20490;-51
2022/08/14 11:42:23;;;;;;;3.57;3.37;;;30.40;99.90;;;;;;5058419;28;20481;-52
2022/08/14 11:44:50;;;;;;;8.60;3.77;;;30.20;99.90;;;;;;5060918;28;20454;-52
2022/08/14 11:47:19;;;;;;;3.87;3.57;;;30.00;99.90;;;;;;5076780;28;20456;-53
2022/08/14 11:49:46;;;;;;;4.83;3.60;;;29.90;99.90;;;;;;5076917;28;20465;-53
2022/08/14 11:52:13;;;;;;;7.40;3.70;;;29.80;99.90;;;;;;5067704;28;20606;-53
2022/08/14 11:54:40;;;;;;;5.90;3.93;;;29.70;99.90;;;;;;5072288;28;20461;-53
2022/08/14 11:57:14;;;;;;;3.33;3.20;;;29.70;99.90;;;;;;5073181;28;20643;-52
2022/08/14 11:59:42;;;;;;;6.13;3.47;;;29.60;99.90;;;;;;5077121;28;20539;-53
2022/08/14 12:02:10;;;;;;;9.73;3.83;;;29.70;99.90;;;;;;5073380;28;20502;-52
2022/08/14 12:04:48;;;;;;;9.97;3.40;;;29.90;99.90;;;;;;5081774;28;20456;-52
2022/08/14 12:07:15;;;;;;;15.57;4.03;;;30.20;99.90;;;;;;5070699;28;20488;-53
2022/08/14 12:09:41;;;;;;;3.40;3.20;;;30.50;99.90;;;;;;5069318;28;20480;-52
2022/08/14 12:12:14;;;;;;;10.03;3.80;;;30.70;99.90;;;;;;5080652;28;20582;-51
2022/08/14 12:14:52;;;;;;;4.03;3.77;;;30.80;99.90;;;;;;5068958;28;20517;-53
2022/08/14 12:17:19;;;;;;;4.50;3.90;;;30.90;99.90;;;;;;5077767;28;20854;-53
2022/08/14 12:19:49;;;;;;;4.20;3.80;;;31.00;99.90;;;;;;5071196;28;20477;-53
2022/08/14 12:22:15;;;;;;;4.33;3.57;;;31.10;99.90;;;;;;5072020;28;20552;-53
2022/08/14 12:24:43;;;;;;;3.63;3.33;;;31.30;99.90;;;;;;5074259;28;20526;-51
2022/08/14 12:27:11;;;;;;;7.50;3.17;;;31.40;99.90;;;;;;5084072;28;20531;-52
2022/08/14 12:29:39;;;;;;;4.33;3.83;;;31.50;99.90;;;;;;5069530;28;20907;-51
2022/08/14 12:32:07;;;;;;;6.73;3.90;;;31.60;99.90;;;;;;5080532;28;20441;-51
2022/08/14 12:34:36;;;;;;;6.23;3.60;;;31.60;99.90;;;;;;5079959;28;20536;-50
2022/08/14 12:37:04;;;;;;;4.93;3.40;;;31.70;99.90;;;;;;5067026;28;20463;-52
2022/08/14 12:39:32;;;;;;;2.67;2.57;;;31.70;99.90;;;;;;5069028;28;20472;-52
2022/08/14 12:42:05;;;;;;;4.70;3.20;;;31.50;99.90;;;;;;5076683;28;21051;-51
2022/08/14 12:44:33;;;;;;;6.20;3.27;;;31.40;99.90;;;;;;5081370;28;20506;-52
2022/08/14 12:47:09;;;;;;;3.73;3.43;;;31.30;99.90;;;;;;5079362;28;20454;-51
2022/08/14 12:49:36;;;;;;;2.97;2.87;;;31.40;99.90;;;;;;5068357;28;20530;-51
2022/08/14 12:52:06;;;;;;;3.40;3.20;;;31.40;99.90;;;;;;5072314;28;20974;-51
2022/08/14 12:54:33;;;;;;;3.03;2.83;;;31.10;99.90;;;;;;5071655;28;20464;-51
2022/08/14 12:57:06;;;;;;;2.80;2.70;;;31.00;99.90;;;;;;5067773;28;20510;-51
2022/08/14 12:59:34;;;;;;;5.23;3.30;;;31.20;99.90;;;;;;5079471;28;20487;-52
2022/08/14 13:02:02;;;;;;;3.03;2.93;;;31.40;99.90;;;;;;5079012;28;20480;-51
2022/08/14 13:04:30;;;;;;;2.80;2.70;;;31.50;99.90;;;;;;5066433;28;20461;-51
2022/08/14 13:07:03;;;;;;;3.17;2.90;;;31.60;99.90;;;;;;5077107;28;20455;-51
2022/08/14 13:09:30;;;;;;;3.47;3.27;;;31.80;99.90;;;;;;5060814;28;20571;-51
2022/08/14 13:11:57;;;;;;;4.07;3.87;;;32.00;99.90;;;;;;5075435;28;20449;-51
2022/08/14 13:14:25;;;;;;;6.50;3.17;;;32.00;99.90;;;;;;5074029;28;20479;-51